createdAt,value
2023-03-05T00:01:38.178Z,2.00
2023-03-05T00:04:07.503Z,2.30
2023-03-05T00:06:34.437Z,2.25
2023-03-05T00:09:04.763Z,2.38
2023-03-05T00:11:36.963Z,2.78
2023-03-05T00:14:04.747Z,2.75
2023-03-05T00:16:32.004Z,2.13
2023-03-05T00:19:00.042Z,2.33
2023-03-05T00:21:33.111Z,2.25
2023-03-05T00:24:04.365Z,2.67
2023-03-05T00:26:34.369Z,2.45
2023-03-05T00:29:01.040Z,2.00
2023-03-05T00:31:30.648Z,3.60
2023-03-05T00:34:02.895Z,2.78
2023-03-05T00:36:32.448Z,2.15
2023-03-05T00:38:59.524Z,2.88
2023-03-05T00:41:28.920Z,2.15
2023-03-05T00:43:55.817Z,2.60
2023-03-05T00:46:27.218Z,2.55
2023-03-05T00:48:54.867Z,2.28
2023-03-05T00:51:24.916Z,2.15
2023-03-05T00:53:51.984Z,2.30
2023-03-05T00:56:18.746Z,2.65
2023-03-05T00:58:50.066Z,2.35
2023-03-05T01:01:17.039Z,2.55
2023-03-05T01:03:45.833Z,1.88
2023-03-05T01:06:15.125Z,2.83
2023-03-05T01:08:43.125Z,2.20
2023-03-05T01:11:12.309Z,2.30
2023-03-05T01:13:41.562Z,2.35
2023-03-05T01:16:13.553Z,2.45
2023-03-05T01:18:42.722Z,2.28
2023-03-05T01:21:10.216Z,2.72
2023-03-05T01:23:37.397Z,2.47
2023-03-05T01:26:04.454Z,2.53
2023-03-05T01:28:33.307Z,2.15
2023-03-05T01:31:05.188Z,2.08
2023-03-05T01:33:31.821Z,2.08
2023-03-05T01:35:58.560Z,2.10
2023-03-05T01:38:25.253Z,2.80
2023-03-05T01:40:51.905Z,2.00
2023-03-05T01:43:27.914Z,2.50
2023-03-05T01:46:13.192Z,2.35
2023-03-05T01:48:44.147Z,2.50
2023-03-05T01:51:13.506Z,2.22
2023-03-05T01:53:40.394Z,2.22
2023-03-05T01:56:09.752Z,2.35
2023-03-05T01:58:37.487Z,2.17
2023-03-05T02:01:09.495Z,2.10
2023-03-05T02:03:37.566Z,2.15
2023-03-05T02:06:04.496Z,1.90
2023-03-05T02:08:31.176Z,2.67
2023-03-05T02:11:03.093Z,2.10
2023-03-05T02:13:35.666Z,2.80
2023-03-05T02:16:05.349Z,2.10
2023-03-05T02:18:37.046Z,2.08
2023-03-05T02:21:09.380Z,1.88
2023-03-05T02:23:40.147Z,1.65
2023-03-05T02:26:12.777Z,1.65
2023-03-05T02:28:53.683Z,1.40
2023-03-05T02:31:24.192Z,1.65
2023-03-05T02:33:56.449Z,1.42
2023-03-05T02:36:23.864Z,1.30
2023-03-05T02:38:50.714Z,1.60
2023-03-05T02:41:22.207Z,1.60
2023-03-05T02:43:53.529Z,2.13
2023-03-05T02:46:20.242Z,1.27
2023-03-05T02:48:46.925Z,1.50
2023-03-05T02:51:13.967Z,1.85
2023-03-05T02:53:45.346Z,1.52
2023-03-05T02:56:14.169Z,1.45
2023-03-05T02:58:40.854Z,1.40
2023-03-05T03:01:12.172Z,1.40
2023-03-05T03:03:39.012Z,1.65
2023-03-05T03:06:06.203Z,1.90
2023-03-05T03:08:32.848Z,1.77
2023-03-05T03:11:12.542Z,2.17
2023-03-05T03:13:39.609Z,2.00
2023-03-05T03:16:12.784Z,2.08
2023-03-05T03:18:39.730Z,2.00
2023-03-05T03:21:07.287Z,2.83
2023-03-05T03:23:34.792Z,2.30
2023-03-05T03:26:03.817Z,1.95
2023-03-05T03:28:32.857Z,2.20
2023-03-05T03:30:59.543Z,2.00
2023-03-05T03:33:26.216Z,2.33
2023-03-05T03:35:55.025Z,2.28
2023-03-05T03:38:24.181Z,2.17
2023-03-05T03:40:50.848Z,2.47
2023-03-05T03:43:17.496Z,2.22
2023-03-05T03:45:44.807Z,2.38
2023-03-05T03:48:11.943Z,2.08
2023-03-05T03:50:42.367Z,2.28
2023-03-05T03:53:12.833Z,3.00
2023-03-05T03:55:42.841Z,2.47
2023-03-05T03:58:10.018Z,2.67
2023-03-05T04:00:39.728Z,3.13
2023-03-05T04:03:06.995Z,2.55
2023-03-05T04:05:35.754Z,2.40
2023-03-05T04:08:03.371Z,2.20
2023-03-05T04:10:30.179Z,2.40
2023-03-05T04:12:56.815Z,2.50
2023-03-05T04:15:26.543Z,3.15
2023-03-05T04:17:57.930Z,2.42
2023-03-05T04:20:24.771Z,2.33
2023-03-05T04:22:53.693Z,2.45
2023-03-05T04:25:20.331Z,2.38
2023-03-05T04:27:46.969Z,3.15
2023-03-05T04:30:16.772Z,2.15
2023-03-05T04:32:43.398Z,2.40
2023-03-05T04:35:10.977Z,2.70
2023-03-05T04:37:37.795Z,2.58
2023-03-05T04:40:05.230Z,2.60
2023-03-05T04:42:31.990Z,2.58
2023-03-05T04:44:58.627Z,2.75
2023-03-05T04:47:27.478Z,2.10
2023-03-05T04:49:54.112Z,2.85
2023-03-05T04:52:20.906Z,2.08
2023-03-05T04:54:47.593Z,2.85
2023-03-05T04:57:16.611Z,2.50
2023-03-05T04:59:45.576Z,2.35
2023-03-05T05:02:14.774Z,2.40
2023-03-05T05:04:44.932Z,2.30
2023-03-05T05:07:12.827Z,2.88
2023-03-05T05:09:41.701Z,3.47
2023-03-05T05:12:10.869Z,2.78
2023-03-05T05:14:37.879Z,2.58
2023-03-05T05:17:05.141Z,2.70
2023-03-05T05:19:35.516Z,2.22
2023-03-05T05:22:02.551Z,2.47
2023-03-05T05:24:29.247Z,3.10
2023-03-05T05:27:00.420Z,2.38
2023-03-05T05:29:27.083Z,2.40
2023-03-05T05:31:54.187Z,2.47
2023-03-05T05:34:25.292Z,2.67
2023-03-05T05:36:56.864Z,2.33
2023-03-05T05:39:23.543Z,2.13
2023-03-05T05:41:52.083Z,2.60
2023-03-05T05:44:18.754Z,2.20
2023-03-05T05:46:48.167Z,2.75
2023-03-05T05:49:14.873Z,2.53
2023-03-05T05:51:41.528Z,2.83
2023-03-05T05:54:08.212Z,3.22
2023-03-05T05:56:37.342Z,2.72
2023-03-05T05:59:04.033Z,2.42
2023-03-05T06:01:33.027Z,2.50
2023-03-05T06:04:00.134Z,2.60
2023-03-05T06:06:27.978Z,2.72
2023-03-05T06:08:57.691Z,2.65
2023-03-05T06:11:27.416Z,3.20
2023-03-05T06:13:54.083Z,3.40
2023-03-05T06:16:24.941Z,2.60
2023-03-05T06:18:52.422Z,2.83
2023-03-05T06:21:20.849Z,2.58
2023-03-05T06:23:48.774Z,2.83
2023-03-05T06:26:18.302Z,2.95
2023-03-05T06:28:45.173Z,3.17
2023-03-05T06:31:18.408Z,3.38
2023-03-05T06:33:45.371Z,3.13
2023-03-05T06:36:15.421Z,2.95
2023-03-05T06:38:42.766Z,3.03
2023-03-05T06:41:11.966Z,3.58
2023-03-05T06:43:41.056Z,3.05
2023-03-05T06:46:13.781Z,4.22
2023-03-05T06:48:40.901Z,4.03
2023-03-05T06:51:14.525Z,4.20
2023-03-05T06:53:49.045Z,3.20
2023-03-05T06:56:21.866Z,3.38
2023-03-05T06:58:52.054Z,3.35
2023-03-05T07:01:23.622Z,3.50
2023-03-05T07:03:59.518Z,4.00
2023-03-05T07:06:32.332Z,4.50
2023-03-05T07:09:02.174Z,4.38
2023-03-05T07:11:29.536Z,4.82
2023-03-05T07:13:56.219Z,3.50
2023-03-05T07:16:26.397Z,4.78
2023-03-05T07:18:53.803Z,3.63
2023-03-05T07:21:26.366Z,3.00
2023-03-05T07:23:56.704Z,3.30
2023-03-05T07:26:30.812Z,3.30
2023-03-05T07:28:57.543Z,3.65
2023-03-05T07:31:31.169Z,2.88
2023-03-05T07:34:01.502Z,3.20
2023-03-05T07:36:29.995Z,3.42
2023-03-05T07:38:56.882Z,2.83
2023-03-05T07:41:23.805Z,3.78
2023-03-05T07:43:57.981Z,3.22
2023-03-05T07:46:31.039Z,3.10
2023-03-05T07:49:00.460Z,3.70
2023-03-05T07:51:28.621Z,3.63
2023-03-05T07:53:58.476Z,3.72
2023-03-05T07:56:35.347Z,3.50
2023-03-05T07:59:09.628Z,4.03
2023-03-05T08:01:36.596Z,3.40
2023-03-05T08:04:05.082Z,3.50
2023-03-05T08:06:32.240Z,3.33
2023-03-05T08:09:01.572Z,3.10
2023-03-05T08:11:30.882Z,2.67
2023-03-05T08:13:59.334Z,3.00
2023-03-05T08:16:28.780Z,3.50
2023-03-05T08:18:57.355Z,3.45
2023-03-05T08:21:29.942Z,3.83
2023-03-05T08:23:57.698Z,3.60
2023-03-05T08:26:28.606Z,3.45
2023-03-05T08:28:58.378Z,3.72
2023-03-05T08:31:30.083Z,3.60
2023-03-05T08:33:58.293Z,3.60
2023-03-05T08:36:25.076Z,3.75
2023-03-05T08:38:51.794Z,3.83
2023-03-05T08:41:19.386Z,3.47
2023-03-05T08:43:48.158Z,3.60
2023-03-05T08:46:16.017Z,3.88
2023-03-05T08:48:43.266Z,5.47
2023-03-05T08:51:26.977Z,3.67
2023-03-05T08:53:56.148Z,3.90
2023-03-05T08:56:22.812Z,3.58
2023-03-05T08:58:52.965Z,3.67
2023-03-05T09:01:23.811Z,3.67
2023-03-05T09:03:50.929Z,3.70
2023-03-05T09:06:17.666Z,3.80
2023-03-05T09:08:44.317Z,4.03
2023-03-05T09:11:13.729Z,3.97
2023-03-05T09:13:42.891Z,4.20
2023-03-05T09:16:19.296Z,4.68
2023-03-05T09:18:48.182Z,4.05
2023-03-05T09:21:18.033Z,5.07
2023-03-05T09:23:47.065Z,4.03
2023-03-05T09:26:19.185Z,4.88
2023-03-05T09:28:48.650Z,4.53
2023-03-05T09:31:15.920Z,4.40
2023-03-05T09:33:42.590Z,5.05
2023-03-05T09:36:24.968Z,4.95
2023-03-05T09:38:52.382Z,4.70
2023-03-05T09:41:25.100Z,6.60
2023-03-05T09:44:10.303Z,6.18
2023-03-05T09:46:56.802Z,6.60
2023-03-05T09:49:41.533Z,6.32
2023-03-05T09:52:18.106Z,6.13
2023-03-05T09:54:48.975Z,6.85
2023-03-05T09:57:22.395Z,7.43
2023-03-05T09:59:54.354Z,6.55
2023-03-05T10:02:29.180Z,7.00
2023-03-05T10:05:21.217Z,8.07
2023-03-05T10:08:02.184Z,8.05
2023-03-05T10:10:56.218Z,8.50
2023-03-05T10:13:25.021Z,8.13
2023-03-05T10:15:56.651Z,8.95
2023-03-05T10:18:48.766Z,8.82
2023-03-05T10:21:35.666Z,8.35
2023-03-05T10:24:24.019Z,9.68
2023-03-05T10:27:03.452Z,9.95
2023-03-05T10:29:46.590Z,10.50
2023-03-05T10:32:40.321Z,10.35
2023-03-05T10:35:21.229Z,10.75
2023-03-05T10:38:25.657Z,10.32
2023-03-05T10:40:55.276Z,8.73
2023-03-05T10:43:55.487Z,9.25
2023-03-05T10:46:27.871Z,9.40
2023-03-05T10:49:14.370Z,9.95
2023-03-05T10:51:51.770Z,10.30
2023-03-05T10:54:33.375Z,10.30
2023-03-05T10:57:21.318Z,7.88
2023-03-05T10:59:58.554Z,7.82
2023-03-05T11:02:27.946Z,7.15
2023-03-05T11:04:54.882Z,6.88
2023-03-05T11:07:23.777Z,7.15
2023-03-05T11:10:05.591Z,7.00
2023-03-05T11:12:39.500Z,7.03
2023-03-05T11:15:14.373Z,6.07
2023-03-05T11:17:48.994Z,6.30
2023-03-05T11:20:28.030Z,6.03
2023-03-05T11:23:16.310Z,7.72
2023-03-05T11:25:51.548Z,7.00
2023-03-05T11:28:33.645Z,8.65
2023-03-05T11:31:15.622Z,7.90
2023-03-05T11:34:04.406Z,7.35
2023-03-05T11:36:37.006Z,7.45
2023-03-05T11:39:06.508Z,8.18
2023-03-05T11:41:58.763Z,8.48
2023-03-05T11:44:28.011Z,7.55
2023-03-05T11:47:13.657Z,8.15
2023-03-05T11:49:45.046Z,7.07
2023-03-05T11:52:20.916Z,7.47
2023-03-05T11:54:53.666Z,6.85
2023-03-05T11:57:23.481Z,6.25
2023-03-05T11:59:52.538Z,6.53
2023-03-05T12:02:25.011Z,6.63
2023-03-05T12:04:52.316Z,6.60
2023-03-05T12:07:39.334Z,6.07
2023-03-05T12:10:06.890Z,6.20
2023-03-05T12:12:40.895Z,6.70
2023-03-05T12:15:29.274Z,5.97
2023-03-05T12:18:19.373Z,5.78
2023-03-05T12:20:49.039Z,5.22
2023-03-05T12:23:22.964Z,5.97
2023-03-05T12:25:51.223Z,6.32
2023-03-05T12:28:58.171Z,5.97
2023-03-05T12:31:39.563Z,5.45
2023-03-05T12:34:39.476Z,5.70
2023-03-05T12:37:33.175Z,5.57
2023-03-05T12:40:08.970Z,5.55
2023-03-05T12:42:35.600Z,5.30
2023-03-05T12:45:24.931Z,5.63
2023-03-05T12:47:57.637Z,4.38
2023-03-05T12:50:27.111Z,4.93
2023-03-05T12:52:58.035Z,4.35
2023-03-05T12:55:27.516Z,4.32
2023-03-05T12:58:21.685Z,5.22
2023-03-05T13:01:23.702Z,4.22
2023-03-05T13:04:10.734Z,3.90
2023-03-05T13:06:39.308Z,4.25
2023-03-05T13:09:34.917Z,4.72
2023-03-05T13:12:04.153Z,5.10
2023-03-05T13:14:48.442Z,5.88
2023-03-05T13:17:33.386Z,6.45
2023-03-05T13:20:02.375Z,7.68
2023-03-05T13:22:29.137Z,7.28
2023-03-05T13:25:25.018Z,7.43
2023-03-05T13:27:51.746Z,7.25
2023-03-05T13:30:23.919Z,6.65
2023-03-05T13:32:57.913Z,7.43
2023-03-05T13:35:26.837Z,7.45
2023-03-05T13:37:53.687Z,6.80
2023-03-05T13:40:25.185Z,7.25
2023-03-05T13:42:56.789Z,6.97
2023-03-05T13:45:34.950Z,6.32
2023-03-05T13:48:04.431Z,6.45
2023-03-05T13:50:36.792Z,6.30
2023-03-05T13:53:29.636Z,6.10
2023-03-05T13:56:10.180Z,5.85
2023-03-05T13:58:52.412Z,7.18
2023-03-05T14:01:28.418Z,7.28
2023-03-05T14:04:03.595Z,7.55
2023-03-05T14:06:40.914Z,7.35
2023-03-05T14:09:19.204Z,6.43
2023-03-05T14:11:56.256Z,6.57
2023-03-05T14:14:26.507Z,5.38
2023-03-05T14:16:56.052Z,6.93
2023-03-05T14:19:41.554Z,7.38
2023-03-05T14:22:32.399Z,5.47
2023-03-05T14:25:02.040Z,5.90
2023-03-05T14:27:34.447Z,5.93
2023-03-05T14:30:07.519Z,6.43
2023-03-05T14:32:39.345Z,6.55
2023-03-05T14:35:16.954Z,6.65
2023-03-05T14:37:49.038Z,6.95
2023-03-05T14:40:15.779Z,5.07
2023-03-05T14:42:54.438Z,6.15
2023-03-05T14:45:43.486Z,4.88
2023-03-05T14:48:13.446Z,5.28
2023-03-05T14:50:46.904Z,6.72
2023-03-05T14:53:20.073Z,8.65
2023-03-05T14:55:53.628Z,8.95
2023-03-05T14:58:25.929Z,33.22
2023-03-05T15:00:56.759Z,16.98
2023-03-05T15:03:24.872Z,7.35
2023-03-05T15:05:56.344Z,6.43
2023-03-05T15:08:28.404Z,8.07
2023-03-05T15:10:55.945Z,7.53
2023-03-05T15:13:25.147Z,5.57
2023-03-05T15:15:55.547Z,5.55
2023-03-05T15:18:22.841Z,5.30
2023-03-05T15:20:56.825Z,6.50
2023-03-05T15:23:34.061Z,6.63
2023-03-05T15:26:05.309Z,5.63
2023-03-05T15:28:41.929Z,6.45
2023-03-05T15:31:09.085Z,6.25
2023-03-05T15:33:35.924Z,6.13
2023-03-05T15:36:02.962Z,8.88
2023-03-05T15:38:29.609Z,7.18
2023-03-05T15:40:56.457Z,7.50
2023-03-05T15:43:25.739Z,7.63
2023-03-05T15:45:52.423Z,7.88
2023-03-05T15:48:26.284Z,8.80
2023-03-05T15:50:52.957Z,8.52
2023-03-05T15:53:21.449Z,9.80
2023-03-05T15:55:52.555Z,8.98
2023-03-05T15:58:19.250Z,9.27
2023-03-05T16:00:49.295Z,9.05
2023-03-05T16:03:18.302Z,9.23
2023-03-05T16:05:45.044Z,10.05
2023-03-05T16:08:11.931Z,10.23
2023-03-05T16:10:40.799Z,9.77
2023-03-05T16:13:21.294Z,10.95
2023-03-05T16:15:52.843Z,10.45
2023-03-05T16:18:20.262Z,10.85
2023-03-05T16:20:49.277Z,11.77
2023-03-05T16:23:16.028Z,11.95
2023-03-05T16:25:45.228Z,12.00
2023-03-05T16:28:11.945Z,10.73
2023-03-05T16:30:41.144Z,10.95
2023-03-05T16:33:08.093Z,10.25
2023-03-05T16:35:34.811Z,10.77
2023-03-05T16:38:02.303Z,10.20
2023-03-05T16:40:56.633Z,14.20
2023-03-05T16:43:22.106Z,10.95
2023-03-05T16:45:48.743Z,9.85
2023-03-05T16:48:17.940Z,9.32
2023-03-05T16:50:49.434Z,9.00
2023-03-05T16:53:18.700Z,9.23
2023-03-05T16:55:47.797Z,9.02
2023-03-05T16:58:19.154Z,8.82
2023-03-05T17:00:48.920Z,9.45
2023-03-05T17:03:15.590Z,9.40
2023-03-05T17:05:42.650Z,9.93
2023-03-05T17:08:11.539Z,9.48
2023-03-05T17:10:40.373Z,9.23
2023-03-05T17:13:07.082Z,9.23
2023-03-05T17:15:34.024Z,9.13
2023-03-05T17:18:03.108Z,9.40
2023-03-05T17:20:35.401Z,8.90
2023-03-05T17:23:04.530Z,8.77
2023-03-05T17:25:33.877Z,8.55
2023-03-05T17:28:00.557Z,9.18
2023-03-05T17:30:31.310Z,8.38
2023-03-05T17:32:57.974Z,8.32
2023-03-05T17:35:24.864Z,8.85
2023-03-05T17:37:56.280Z,8.77
2023-03-05T17:40:25.087Z,8.40
2023-03-05T17:42:53.957Z,9.30
2023-03-05T17:45:23.140Z,8.00
2023-03-05T17:47:49.857Z,9.40
2023-03-05T17:50:16.759Z,10.35
2023-03-05T17:52:45.990Z,8.50
2023-03-05T17:55:14.872Z,8.57
2023-03-05T17:57:47.940Z,8.57
2023-03-05T18:00:33.608Z,9.68
2023-03-05T18:03:03.686Z,9.23
2023-03-05T18:05:30.844Z,7.93
2023-03-05T18:07:58.891Z,8.05
2023-03-05T18:10:27.240Z,8.07
2023-03-05T18:12:56.648Z,8.70
2023-03-05T18:15:24.830Z,8.27
2023-03-05T18:17:52.168Z,8.52
2023-03-05T18:20:27.072Z,7.90
2023-03-05T18:22:54.060Z,8.13
2023-03-05T18:25:21.920Z,7.72
2023-03-05T18:27:48.614Z,7.97
2023-03-05T18:30:18.113Z,7.65
2023-03-05T18:32:47.503Z,6.90
2023-03-05T18:35:14.413Z,6.30
2023-03-05T18:37:41.158Z,6.80
2023-03-05T18:40:19.466Z,6.95
2023-03-05T18:42:48.701Z,6.22
2023-03-05T18:45:19.670Z,6.43
2023-03-05T18:47:46.904Z,7.15
2023-03-05T18:50:18.385Z,7.72
2023-03-05T18:52:45.552Z,8.27
2023-03-05T18:55:19.156Z,8.68
2023-03-05T18:57:46.058Z,8.95
2023-03-05T19:00:15.115Z,9.50
2023-03-05T19:02:41.755Z,8.27
2023-03-05T19:05:11.781Z,9.38
2023-03-05T19:07:43.754Z,8.45
2023-03-05T19:10:12.298Z,9.05
2023-03-05T19:12:49.724Z,8.65
2023-03-05T19:15:18.962Z,8.68
2023-03-05T19:17:49.361Z,8.63
2023-03-05T19:20:18.021Z,7.53
2023-03-05T19:22:50.687Z,8.15
2023-03-05T19:25:18.313Z,7.57
2023-03-05T19:27:47.474Z,6.90
2023-03-05T19:30:16.136Z,8.23
2023-03-05T19:32:42.916Z,7.88
2023-03-05T19:35:13.802Z,7.75
2023-03-05T19:37:40.449Z,7.32
2023-03-05T19:40:10.173Z,7.63
2023-03-05T19:42:38.952Z,6.32
2023-03-05T19:45:06.927Z,7.90
2023-03-05T19:47:33.614Z,7.32
2023-03-05T19:50:00.353Z,7.85
2023-03-05T19:52:27.603Z,7.97
2023-03-05T19:54:54.332Z,6.75
2023-03-05T19:57:23.376Z,7.75
2023-03-05T19:59:53.596Z,6.55
2023-03-05T20:02:22.605Z,7.55
2023-03-05T20:04:52.087Z,7.35
2023-03-05T20:07:18.852Z,7.55
2023-03-05T20:09:45.575Z,8.65
2023-03-05T20:12:12.308Z,8.15
2023-03-05T20:14:41.185Z,8.75
2023-03-05T20:17:07.830Z,8.98
2023-03-05T20:19:34.690Z,9.63
2023-03-05T20:22:01.334Z,8.95
2023-03-05T20:24:36.079Z,8.90
2023-03-05T20:27:02.968Z,9.83
2023-03-05T20:29:31.931Z,9.82
2023-03-05T20:31:58.709Z,10.52
2023-03-05T20:34:26.962Z,10.10
2023-03-05T20:36:53.673Z,9.98
2023-03-05T20:39:22.692Z,11.07
2023-03-05T20:41:51.533Z,12.90
2023-03-05T20:44:18.196Z,13.07
2023-03-05T20:47:02.380Z,12.30
2023-03-05T20:49:29.140Z,12.25
2023-03-05T20:51:55.794Z,12.45
2023-03-05T20:54:23.895Z,12.18
2023-03-05T20:56:50.660Z,12.20
2023-03-05T20:59:17.597Z,12.10
2023-03-05T21:01:46.666Z,12.60
2023-03-05T21:04:13.422Z,12.93
2023-03-05T21:06:42.446Z,13.32
2023-03-05T21:09:11.296Z,13.48
2023-03-05T21:11:38.038Z,14.35
2023-03-05T21:14:06.972Z,13.60
2023-03-05T21:16:33.714Z,14.85
2023-03-05T21:19:00.500Z,14.40
2023-03-05T21:21:30.189Z,14.60
2023-03-05T21:23:59.400Z,14.68
2023-03-05T21:26:26.062Z,15.25
2023-03-05T21:28:52.689Z,14.68
2023-03-05T21:31:21.896Z,14.20
2023-03-05T21:33:49.385Z,14.38
2023-03-05T21:36:19.225Z,14.40
2023-03-05T21:38:49.545Z,14.52
2023-03-05T21:41:18.049Z,13.38
2023-03-05T21:43:47.129Z,14.02
2023-03-05T21:46:16.479Z,13.57
2023-03-05T21:48:45.319Z,11.80
2023-03-05T21:51:13.763Z,13.57
2023-03-05T21:53:40.427Z,13.63
2023-03-05T21:56:16.795Z,12.27
2023-03-05T21:58:46.181Z,12.27
2023-03-05T22:01:14.774Z,12.10
2023-03-05T22:03:41.488Z,11.63
2023-03-05T22:06:12.663Z,12.07
2023-03-05T22:08:39.337Z,11.82
2023-03-05T22:11:14.010Z,10.23
2023-03-05T22:13:43.430Z,8.38
2023-03-05T22:16:14.277Z,8.55
2023-03-05T22:18:40.957Z,8.82
2023-03-05T22:21:21.458Z,8.25
2023-03-05T22:23:48.417Z,9.10
2023-03-05T22:26:15.104Z,9.10
2023-03-05T22:28:44.203Z,9.45
2023-03-05T22:31:19.020Z,9.55
2023-03-05T22:33:45.843Z,9.60
2023-03-05T22:36:14.593Z,8.63
2023-03-05T22:38:42.588Z,8.32
2023-03-05T22:41:11.328Z,8.52
2023-03-05T22:43:40.751Z,8.73
2023-03-05T22:46:15.017Z,8.95
2023-03-05T22:48:44.798Z,7.55
2023-03-05T22:51:15.507Z,8.35
2023-03-05T22:53:45.292Z,8.27
2023-03-05T22:56:14.897Z,7.47
2023-03-05T22:58:44.862Z,7.68
2023-03-05T23:01:20.040Z,7.78
2023-03-05T23:03:53.135Z,7.53
2023-03-05T23:06:19.820Z,8.13
2023-03-05T23:08:48.771Z,7.40
2023-03-05T23:11:22.712Z,7.82
2023-03-05T23:13:51.558Z,8.10
2023-03-05T23:16:20.333Z,8.55
2023-03-05T23:18:49.333Z,10.75
2023-03-05T23:21:16.104Z,9.38
2023-03-05T23:23:42.756Z,7.65
2023-03-05T23:26:12.550Z,8.77
2023-03-05T23:28:41.739Z,9.15
2023-03-05T23:31:08.442Z,8.45
2023-03-05T23:33:37.933Z,8.15
2023-03-05T23:36:04.825Z,8.35
2023-03-05T23:38:31.558Z,9.30
2023-03-05T23:41:03.262Z,8.90
2023-03-05T23:43:32.152Z,8.27
2023-03-05T23:46:01.818Z,9.32
2023-03-05T23:48:29.546Z,8.20
2023-03-05T23:51:00.842Z,9.60
2023-03-05T23:53:29.569Z,9.27
2023-03-05T23:55:58.938Z,9.68
2023-03-05T23:58:25.780Z,10.05
